createdAt,value
2018-12-16T00:03:24.240Z,90.09
2018-12-16T00:08:31.150Z,90.16
2018-12-16T00:13:36.298Z,89.78
2018-12-16T00:18:40.668Z,90.20
2018-12-16T00:23:45.117Z,90.21
2018-12-16T00:28:50.920Z,90.05
2018-12-16T00:33:55.123Z,89.84
2018-12-16T00:39:03.922Z,89.82
2018-12-16T00:44:11.200Z,90.10
2018-12-16T00:54:40.620Z,90.40
2018-12-16T00:59:46.706Z,90.55
2018-12-16T01:04:54.136Z,89.96
2018-12-16T01:10:01.135Z,90.21
2018-12-16T01:15:14.356Z,89.31
2018-12-16T01:20:21.972Z,89.68
2018-12-16T01:25:28.801Z,89.90
2018-12-16T01:30:34.242Z,90.43
2018-12-16T01:35:38.394Z,90.51
2018-12-16T01:40:45.829Z,89.72
2018-12-16T01:45:52.640Z,89.93
2018-12-16T01:50:57.141Z,90.92
2018-12-16T01:56:01.584Z,90.06
2018-12-16T02:01:06.018Z,89.76
2018-12-16T02:06:10.330Z,90.23
2018-12-16T02:11:14.677Z,89.92
2018-12-16T02:16:21.014Z,89.68
2018-12-16T02:21:25.378Z,89.29
2018-12-16T02:26:30.203Z,89.76
2018-12-16T02:31:34.671Z,89.19
2018-12-16T02:36:40.057Z,89.40
2018-12-16T02:41:44.461Z,89.55
2018-12-16T02:46:48.960Z,89.71
2018-12-16T02:51:53.409Z,88.71
2018-12-16T02:56:58.517Z,89.39
2018-12-16T03:02:02.907Z,89.61
2018-12-16T03:07:09.473Z,89.42
2018-12-16T03:12:14.810Z,89.52
2018-12-16T03:17:20.346Z,89.81
2018-12-16T03:22:24.870Z,90.01
2018-12-16T03:27:29.146Z,89.99
2018-12-16T03:32:33.676Z,88.56
2018-12-16T03:37:38.191Z,88.67
2018-12-16T03:42:42.616Z,88.49
2018-12-16T03:47:47.025Z,87.52
2018-12-16T03:52:53.416Z,87.92
2018-12-16T03:57:58.893Z,87.76
2018-12-16T04:03:04.255Z,87.36
2018-12-16T04:08:08.487Z,86.97
2018-12-16T04:13:12.593Z,85.34
2018-12-16T04:18:17.983Z,85.63
2018-12-16T04:23:27.479Z,85.02
2018-12-16T04:28:28.514Z,84.26
2018-12-16T04:33:32.908Z,82.67
2018-12-16T04:38:37.239Z,83.20
2018-12-16T04:43:41.368Z,82.82
2018-12-16T04:48:45.664Z,80.87
2018-12-16T04:53:49.796Z,80.07
2018-12-16T04:58:53.936Z,78.86
2018-12-16T05:03:58.087Z,76.68
2018-12-16T05:09:02.177Z,75.92
2018-12-16T05:14:08.434Z,74.83
2018-12-16T05:19:15.419Z,73.24
2018-12-16T05:24:19.586Z,73.46
2018-12-16T05:29:24.224Z,72.30
2018-12-16T05:34:28.465Z,72.91
2018-12-16T05:39:32.678Z,73.07
2018-12-16T05:44:36.879Z,73.64
2018-12-16T05:49:41.029Z,70.61
2018-12-16T05:54:45.604Z,71.52
2018-12-16T05:59:49.829Z,70.56
2018-12-16T06:04:55.141Z,69.97
2018-12-16T06:09:59.425Z,70.73
2018-12-16T06:15:04.171Z,71.16
2018-12-16T06:20:17.785Z,70.75
2018-12-16T06:25:22.057Z,71.18
2018-12-16T06:30:28.737Z,71.04
2018-12-16T06:35:34.273Z,70.28
2018-12-16T06:40:40.271Z,70.94
2018-12-16T06:45:45.080Z,70.87
2018-12-16T06:50:49.594Z,71.23
2018-12-16T06:55:54.085Z,70.84
2018-12-16T07:00:58.914Z,72.11
2018-12-16T07:06:03.307Z,71.38
2018-12-16T07:11:08.653Z,71.99
2018-12-16T07:16:13.023Z,71.89
2018-12-16T07:21:18.438Z,71.69
2018-12-16T07:26:23.042Z,71.79
2018-12-16T07:31:27.724Z,72.24
2018-12-16T07:36:32.388Z,71.76
2018-12-16T07:41:37.171Z,72.24
2018-12-16T07:46:41.524Z,72.57
2018-12-16T07:51:45.989Z,73.15
2018-12-16T07:56:50.510Z,73.31
2018-12-16T08:01:55.705Z,72.89
2018-12-16T08:07:00.424Z,72.74
2018-12-16T08:12:05.051Z,72.85
2018-12-16T08:17:10.506Z,73.09
2018-12-16T08:22:15.906Z,72.50
2018-12-16T08:27:20.224Z,72.75
2018-12-16T08:32:24.839Z,72.27
2018-12-16T08:37:29.104Z,71.81
2018-12-16T08:42:33.475Z,72.36
2018-12-16T08:47:38.133Z,71.50
2018-12-16T08:52:42.302Z,72.44
2018-12-16T08:57:46.651Z,72.01
2018-12-16T09:02:51.358Z,71.63
2018-12-16T09:07:55.788Z,72.20
2018-12-16T09:13:00.619Z,71.91
2018-12-16T09:18:05.184Z,71.29
2018-12-16T09:23:09.507Z,71.04
2018-12-16T09:28:13.962Z,70.92
2018-12-16T09:33:18.485Z,70.53
2018-12-16T09:38:23.069Z,69.80
2018-12-16T09:43:27.336Z,69.64
2018-12-16T09:48:31.786Z,70.22
2018-12-16T09:53:37.165Z,69.51
2018-12-16T09:58:41.407Z,68.71
2018-12-16T10:03:45.821Z,68.71
2018-12-16T10:08:50.214Z,68.69
2018-12-16T10:13:54.555Z,68.84
2018-12-16T10:18:58.974Z,67.95
2018-12-16T10:24:03.385Z,67.72
2018-12-16T10:29:08.127Z,67.50
2018-12-16T10:34:12.394Z,67.14
2018-12-16T10:39:21.909Z,68.05
2018-12-16T10:44:26.602Z,67.77
2018-12-16T10:49:31.029Z,68.49
2018-12-16T10:54:36.213Z,68.70
2018-12-16T10:59:42.893Z,67.85
2018-12-16T11:04:47.533Z,67.61
2018-12-16T11:15:12.497Z,66.72
2018-12-16T11:20:22.392Z,66.17
2018-12-16T11:25:27.804Z,65.84
2018-12-16T11:30:32.202Z,64.73
2018-12-16T11:35:37.077Z,64.62
2018-12-16T11:40:42.106Z,63.72
2018-12-16T11:45:46.537Z,65.37
2018-12-16T11:50:51.657Z,65.54
2018-12-16T11:55:56.123Z,65.12
2018-12-16T12:01:00.981Z,64.72
2018-12-16T12:06:08.114Z,65.11
2018-12-16T12:11:12.507Z,63.38
2018-12-16T12:16:16.919Z,64.54
2018-12-16T12:21:21.451Z,65.65
2018-12-16T12:26:28.940Z,65.18
2018-12-16T12:31:33.424Z,66.10
2018-12-16T12:36:38.117Z,65.29
2018-12-16T12:41:42.646Z,66.10
2018-12-16T12:46:47.284Z,66.50
2018-12-16T12:51:52.918Z,66.21
2018-12-16T12:56:58.474Z,66.69
2018-12-16T13:02:03.649Z,67.41
2018-12-16T13:07:08.302Z,67.05
2018-12-16T13:12:13.150Z,67.21
2018-12-16T13:17:17.481Z,66.89
2018-12-16T13:22:21.724Z,66.84
2018-12-16T13:27:26.027Z,67.65
2018-12-16T13:32:30.468Z,67.28
2018-12-16T13:37:34.816Z,71.72
2018-12-16T13:42:40.052Z,71.24
2018-12-16T13:47:45.126Z,70.18
2018-12-16T13:52:49.790Z,70.03
2018-12-16T13:57:58.319Z,67.45
2018-12-16T14:03:02.630Z,67.65
2018-12-16T14:08:15.888Z,70.57
2018-12-16T14:13:20.300Z,71.38
2018-12-16T14:18:24.594Z,70.95
2018-12-16T14:23:30.583Z,71.67
2018-12-16T14:28:35.140Z,70.13
2018-12-16T14:33:39.384Z,71.99
2018-12-16T14:38:43.968Z,72.87
2018-12-16T14:43:48.174Z,75.70
2018-12-16T14:48:52.348Z,77.89
2018-12-16T14:53:56.593Z,80.02
2018-12-16T14:59:00.820Z,81.48
2018-12-16T15:04:05.127Z,83.17
2018-12-16T15:09:18.995Z,84.16
2018-12-16T15:14:23.289Z,85.97
2018-12-16T15:19:27.511Z,86.73
2018-12-16T15:24:31.644Z,86.31
2018-12-16T15:29:44.539Z,86.06
2018-12-16T15:34:48.858Z,85.42
2018-12-16T15:39:52.976Z,85.45
2018-12-16T15:44:57.561Z,85.85
2018-12-16T15:50:02.719Z,86.46
2018-12-16T15:55:09.845Z,86.46
2018-12-16T16:00:16.353Z,86.78
2018-12-16T16:05:20.627Z,86.29
2018-12-16T16:10:25.101Z,85.76
2018-12-16T16:15:29.427Z,85.47
2018-12-16T16:20:33.714Z,85.70
2018-12-16T16:25:38.184Z,86.25
2018-12-16T16:30:42.419Z,87.06
2018-12-16T16:35:46.769Z,87.70
2018-12-16T16:40:51.881Z,88.38
2018-12-16T16:45:56.191Z,88.40
2018-12-16T16:51:00.409Z,89.28
2018-12-16T16:56:04.909Z,89.51
2018-12-16T17:01:09.238Z,89.21
2018-12-16T17:06:14.535Z,89.66
2018-12-16T17:11:19.604Z,89.74
2018-12-16T17:16:24.308Z,90.13
2018-12-16T17:21:29.583Z,90.64
2018-12-16T17:26:34.344Z,90.48
2018-12-16T17:31:39.338Z,91.46
2018-12-16T17:36:43.763Z,91.97
2018-12-16T17:41:48.045Z,92.31
2018-12-16T17:46:52.577Z,92.55
2018-12-16T17:51:57.320Z,94.12
2018-12-16T17:57:01.779Z,92.25
2018-12-16T18:02:07.102Z,91.48
2018-12-16T18:07:12.664Z,92.75
2018-12-16T18:12:16.938Z,92.55
2018-12-16T18:17:21.445Z,92.82
2018-12-16T18:22:25.817Z,93.28
2018-12-16T18:27:30.558Z,92.50
2018-12-16T18:32:35.357Z,92.31
2018-12-16T18:37:39.958Z,91.65
2018-12-16T18:42:49.703Z,92.71
2018-12-16T18:47:54.122Z,91.43
2018-12-16T18:52:58.639Z,91.74
2018-12-16T18:58:03.453Z,91.07
2018-12-16T19:03:11.384Z,90.90
2018-12-16T19:08:16.983Z,90.43
2018-12-16T19:13:22.188Z,90.16
2018-12-16T19:18:27.779Z,90.47
2018-12-16T19:23:32.234Z,90.37
2018-12-16T19:28:37.031Z,89.77
2018-12-16T19:33:41.527Z,88.73
2018-12-16T19:38:45.649Z,87.98
2018-12-16T19:43:49.881Z,88.50
2018-12-16T19:48:54.276Z,88.36
2018-12-16T19:53:58.737Z,88.63
2018-12-16T19:59:04.792Z,88.40
2018-12-16T20:04:15.182Z,88.91
2018-12-16T20:09:21.305Z,89.38
2018-12-16T20:14:25.657Z,88.63
2018-12-16T20:19:29.959Z,88.91
2018-12-16T20:24:34.393Z,88.67
2018-12-16T20:29:39.150Z,87.67
2018-12-16T20:34:43.305Z,88.33
2018-12-16T20:39:47.966Z,87.79
2018-12-16T20:44:52.583Z,88.13
2018-12-16T20:50:02.223Z,87.71
2018-12-16T20:55:07.136Z,87.67
2018-12-16T21:00:12.865Z,88.44
2018-12-16T21:05:17.259Z,87.91
2018-12-16T21:10:21.616Z,86.86
2018-12-16T21:15:31.292Z,87.02
2018-12-16T21:20:35.504Z,86.34
2018-12-16T21:25:39.937Z,87.04
2018-12-16T21:30:44.335Z,86.13
2018-12-16T21:35:50.644Z,87.12
2018-12-16T21:40:57.637Z,86.44
2018-12-16T21:46:02.274Z,86.54
2018-12-16T21:51:07.706Z,86.23
2018-12-16T21:56:12.105Z,86.70
2018-12-16T22:01:16.452Z,85.99
2018-12-16T22:06:23.552Z,85.91
2018-12-16T22:11:27.826Z,86.23
2018-12-16T22:16:33.975Z,87.00
2018-12-16T22:21:39.424Z,86.52
2018-12-16T22:26:44.027Z,86.98
2018-12-16T22:31:49.032Z,86.92
2018-12-16T22:36:53.364Z,86.87
2018-12-16T22:41:59.526Z,86.99
2018-12-16T22:47:04.896Z,87.37
2018-12-16T22:52:09.217Z,86.72
2018-12-16T22:57:14.294Z,86.93
2018-12-16T23:02:19.329Z,86.80
2018-12-16T23:07:23.954Z,86.43
2018-12-16T23:12:30.668Z,86.09
2018-12-16T23:17:35.552Z,86.75
2018-12-16T23:27:59.419Z,85.90
2018-12-16T23:38:20.470Z,86.51
2018-12-16T23:43:25.820Z,86.80
2018-12-16T23:48:30.349Z,86.53
2018-12-16T23:53:34.641Z,86.56
2018-12-16T23:58:48.215Z,86.91
